sensor_id;sensor_type;location;lat;lon;timestamp;P1;durP1;ratioP1;P2;durP2;ratioP2
9712;SDS011;4895;50.926;6.870;2023-06-26T00:00:11;8.57;;;6.83;;
9712;SDS011;4895;50.926;6.870;2023-06-26T00:02:37;10.23;;;6.90;;
9712;SDS011;4895;50.926;6.870;2023-06-26T00:05:02;9.27;;;7.20;;
9712;SDS011;4895;50.926;6.870;2023-06-26T00:07:29;9.00;;;6.83;;
9712;SDS011;4895;50.926;6.870;2023-06-26T00:09:55;11.30;;;7.60;;
9712;SDS011;4895;50.926;6.870;2023-06-26T00:12:21;9.00;;;6.07;;
9712;SDS011;4895;50.926;6.870;2023-06-26T00:14:46;9.60;;;7.50;;
9712;SDS011;4895;50.926;6.870;2023-06-26T00:17:11;10.17;;;7.60;;
9712;SDS011;4895;50.926;6.870;2023-06-26T00:19:37;8.80;;;6.50;;
9712;SDS011;4895;50.926;6.870;2023-06-26T00:22:02;8.40;;;6.73;;
9712;SDS011;4895;50.926;6.870;2023-06-26T00:24:27;11.90;;;7.63;;
9712;SDS011;4895;50.926;6.870;2023-06-26T00:26:52;7.83;;;6.60;;
9712;SDS011;4895;50.926;6.870;2023-06-26T00:29:18;9.43;;;7.00;;
9712;SDS011;4895;50.926;6.870;2023-06-26T00:31:43;9.40;;;7.10;;
9712;SDS011;4895;50.926;6.870;2023-06-26T00:34:08;10.97;;;7.07;;
9712;SDS011;4895;50.926;6.870;2023-06-26T00:36:34;9.30;;;7.30;;
9712;SDS011;4895;50.926;6.870;2023-06-26T00:38:59;12.47;;;7.60;;
9712;SDS011;4895;50.926;6.870;2023-06-26T00:41:24;10.40;;;6.97;;
9712;SDS011;4895;50.926;6.870;2023-06-26T00:43:50;9.93;;;7.03;;
9712;SDS011;4895;50.926;6.870;2023-06-26T00:46:15;10.03;;;6.60;;
9712;SDS011;4895;50.926;6.870;2023-06-26T00:48:42;8.33;;;6.60;;
9712;SDS011;4895;50.926;6.870;2023-06-26T00:51:08;10.90;;;7.00;;
9712;SDS011;4895;50.926;6.870;2023-06-26T00:53:33;9.97;;;7.07;;
9712;SDS011;4895;50.926;6.870;2023-06-26T00:55:59;8.80;;;6.50;;
9712;SDS011;4895;50.926;6.870;2023-06-26T00:58:25;9.20;;;6.97;;
9712;SDS011;4895;50.926;6.870;2023-06-26T01:00:51;8.93;;;6.87;;
9712;SDS011;4895;50.926;6.870;2023-06-26T01:03:17;9.70;;;6.80;;
9712;SDS011;4895;50.926;6.870;2023-06-26T01:05:44;8.87;;;6.40;;
9712;SDS011;4895;50.926;6.870;2023-06-26T01:08:11;8.13;;;6.47;;
9712;SDS011;4895;50.926;6.870;2023-06-26T01:10:37;9.60;;;7.20;;
9712;SDS011;4895;50.926;6.870;2023-06-26T01:13:03;8.90;;;7.17;;
9712;SDS011;4895;50.926;6.870;2023-06-26T01:15:28;10.23;;;6.70;;
9712;SDS011;4895;50.926;6.870;2023-06-26T01:17:54;8.90;;;7.37;;
9712;SDS011;4895;50.926;6.870;2023-06-26T01:20:20;9.03;;;6.43;;
9712;SDS011;4895;50.926;6.870;2023-06-26T01:25:23;8.93;;;6.70;;
9712;SDS011;4895;50.926;6.870;2023-06-26T01:28:09;13.63;;;7.60;;
9712;SDS011;4895;50.926;6.870;2023-06-26T01:30:37;8.87;;;6.27;;
9712;SDS011;4895;50.926;6.870;2023-06-26T01:33:04;11.93;;;7.07;;
9712;SDS011;4895;50.926;6.870;2023-06-26T01:35:29;9.53;;;7.30;;
9712;SDS011;4895;50.926;6.870;2023-06-26T01:38:11;9.40;;;6.70;;
9712;SDS011;4895;50.926;6.870;2023-06-26T01:40:42;9.67;;;7.30;;
9712;SDS011;4895;50.926;6.870;2023-06-26T01:43:35;9.10;;;6.93;;
9712;SDS011;4895;50.926;6.870;2023-06-26T01:46:01;9.37;;;6.70;;
9712;SDS011;4895;50.926;6.870;2023-06-26T01:48:34;10.87;;;7.47;;
9712;SDS011;4895;50.926;6.870;2023-06-26T01:51:04;11.10;;;7.17;;
9712;SDS011;4895;50.926;6.870;2023-06-26T01:53:32;10.03;;;7.60;;
9712;SDS011;4895;50.926;6.870;2023-06-26T01:56:14;10.00;;;7.50;;
9712;SDS011;4895;50.926;6.870;2023-06-26T01:58:43;10.97;;;7.10;;
9712;SDS011;4895;50.926;6.870;2023-06-26T02:01:09;10.47;;;7.60;;
9712;SDS011;4895;50.926;6.870;2023-06-26T02:03:34;10.83;;;7.47;;
9712;SDS011;4895;50.926;6.870;2023-06-26T02:05:59;9.30;;;7.33;;
9712;SDS011;4895;50.926;6.870;2023-06-26T02:08:25;14.30;;;8.00;;
9712;SDS011;4895;50.926;6.870;2023-06-26T02:10:50;9.53;;;7.30;;
9712;SDS011;4895;50.926;6.870;2023-06-26T02:13:15;10.63;;;7.73;;
9712;SDS011;4895;50.926;6.870;2023-06-26T02:15:41;11.23;;;7.57;;
9712;SDS011;4895;50.926;6.870;2023-06-26T02:18:06;10.10;;;7.43;;
9712;SDS011;4895;50.926;6.870;2023-06-26T02:20:31;10.20;;;7.67;;
9712;SDS011;4895;50.926;6.870;2023-06-26T02:22:58;14.00;;;8.83;;
9712;SDS011;4895;50.926;6.870;2023-06-26T02:25:23;14.20;;;8.20;;
9712;SDS011;4895;50.926;6.870;2023-06-26T02:27:49;9.70;;;7.73;;
9712;SDS011;4895;50.926;6.870;2023-06-26T02:30:14;9.37;;;7.20;;
9712;SDS011;4895;50.926;6.870;2023-06-26T02:32:39;11.70;;;7.60;;
9712;SDS011;4895;50.926;6.870;2023-06-26T02:35:05;9.23;;;7.50;;
9712;SDS011;4895;50.926;6.870;2023-06-26T02:37:30;11.70;;;8.10;;
9712;SDS011;4895;50.926;6.870;2023-06-26T02:39:56;10.33;;;8.13;;
9712;SDS011;4895;50.926;6.870;2023-06-26T02:42:21;11.80;;;8.27;;
9712;SDS011;4895;50.926;6.870;2023-06-26T02:44:46;10.57;;;8.67;;
9712;SDS011;4895;50.926;6.870;2023-06-26T02:47:11;11.30;;;8.37;;
9712;SDS011;4895;50.926;6.870;2023-06-26T02:49:37;12.83;;;8.27;;
9712;SDS011;4895;50.926;6.870;2023-06-26T02:52:02;11.07;;;8.00;;
9712;SDS011;4895;50.926;6.870;2023-06-26T02:54:27;9.60;;;6.90;;
9712;SDS011;4895;50.926;6.870;2023-06-26T02:56:53;12.33;;;8.30;;
9712;SDS011;4895;50.926;6.870;2023-06-26T02:59:18;10.37;;;7.83;;
9712;SDS011;4895;50.926;6.870;2023-06-26T03:01:43;12.90;;;7.97;;
9712;SDS011;4895;50.926;6.870;2023-06-26T03:04:09;12.33;;;7.80;;
9712;SDS011;4895;50.926;6.870;2023-06-26T03:06:35;8.87;;;6.97;;
9712;SDS011;4895;50.926;6.870;2023-06-26T03:09:00;10.00;;;7.47;;
9712;SDS011;4895;50.926;6.870;2023-06-26T03:11:26;8.73;;;7.13;;
9712;SDS011;4895;50.926;6.870;2023-06-26T03:13:51;12.10;;;7.70;;
9712;SDS011;4895;50.926;6.870;2023-06-26T03:16:16;9.70;;;7.37;;
9712;SDS011;4895;50.926;6.870;2023-06-26T03:18:41;12.10;;;7.40;;
9712;SDS011;4895;50.926;6.870;2023-06-26T03:21:08;14.43;;;7.07;;
9712;SDS011;4895;50.926;6.870;2023-06-26T03:23:34;12.57;;;7.30;;
9712;SDS011;4895;50.926;6.870;2023-06-26T03:25:59;10.00;;;7.13;;
9712;SDS011;4895;50.926;6.870;2023-06-26T03:28:24;10.93;;;7.30;;
9712;SDS011;4895;50.926;6.870;2023-06-26T03:30:50;10.60;;;6.67;;
9712;SDS011;4895;50.926;6.870;2023-06-26T03:33:15;11.60;;;6.87;;
9712;SDS011;4895;50.926;6.870;2023-06-26T03:35:40;12.50;;;6.80;;
9712;SDS011;4895;50.926;6.870;2023-06-26T03:38:05;13.47;;;6.93;;
9712;SDS011;4895;50.926;6.870;2023-06-26T03:40:31;8.47;;;6.43;;
9712;SDS011;4895;50.926;6.870;2023-06-26T03:42:56;9.70;;;6.90;;
9712;SDS011;4895;50.926;6.870;2023-06-26T03:45:21;10.97;;;6.83;;
9712;SDS011;4895;50.926;6.870;2023-06-26T03:47:47;12.20;;;6.93;;
9712;SDS011;4895;50.926;6.870;2023-06-26T03:50:16;9.27;;;6.30;;
9712;SDS011;4895;50.926;6.870;2023-06-26T03:52:42;9.97;;;6.07;;
9712;SDS011;4895;50.926;6.870;2023-06-26T03:55:07;11.57;;;6.30;;
9712;SDS011;4895;50.926;6.870;2023-06-26T03:57:33;11.30;;;6.10;;
9712;SDS011;4895;50.926;6.870;2023-06-26T03:59:58;13.53;;;6.40;;
9712;SDS011;4895;50.926;6.870;2023-06-26T04:02:23;8.40;;;6.27;;
9712;SDS011;4895;50.926;6.870;2023-06-26T04:04:49;12.60;;;6.80;;
9712;SDS011;4895;50.926;6.870;2023-06-26T04:07:14;10.83;;;6.80;;
9712;SDS011;4895;50.926;6.870;2023-06-26T04:09:39;9.10;;;6.80;;
9712;SDS011;4895;50.926;6.870;2023-06-26T04:12:05;13.10;;;7.13;;
9712;SDS011;4895;50.926;6.870;2023-06-26T04:14:31;16.30;;;6.70;;
9712;SDS011;4895;50.926;6.870;2023-06-26T04:16:56;10.70;;;6.67;;
9712;SDS011;4895;50.926;6.870;2023-06-26T04:19:22;19.93;;;6.50;;
9712;SDS011;4895;50.926;6.870;2023-06-26T04:21:48;15.87;;;6.43;;
9712;SDS011;4895;50.926;6.870;2023-06-26T04:24:13;12.27;;;6.37;;
9712;SDS011;4895;50.926;6.870;2023-06-26T04:26:39;10.13;;;6.07;;
9712;SDS011;4895;50.926;6.870;2023-06-26T04:29:06;9.03;;;6.90;;
9712;SDS011;4895;50.926;6.870;2023-06-26T04:31:31;10.30;;;6.10;;
9712;SDS011;4895;50.926;6.870;2023-06-26T04:33:56;10.27;;;5.83;;
9712;SDS011;4895;50.926;6.870;2023-06-26T04:36:22;11.17;;;6.23;;
9712;SDS011;4895;50.926;6.870;2023-06-26T04:38:48;9.87;;;6.00;;
9712;SDS011;4895;50.926;6.870;2023-06-26T04:41:14;12.50;;;5.50;;
9712;SDS011;4895;50.926;6.870;2023-06-26T04:43:40;12.87;;;5.73;;
9712;SDS011;4895;50.926;6.870;2023-06-26T04:46:05;12.03;;;5.70;;
9712;SDS011;4895;50.926;6.870;2023-06-26T04:48:31;8.63;;;5.10;;
9712;SDS011;4895;50.926;6.870;2023-06-26T04:50:56;8.33;;;5.80;;
9712;SDS011;4895;50.926;6.870;2023-06-26T04:53:23;16.13;;;6.50;;
9712;SDS011;4895;50.926;6.870;2023-06-26T04:55:49;8.80;;;5.67;;
9712;SDS011;4895;50.926;6.870;2023-06-26T04:58:15;13.70;;;6.60;;
9712;SDS011;4895;50.926;6.870;2023-06-26T05:00:41;18.73;;;5.60;;
9712;SDS011;4895;50.926;6.870;2023-06-26T05:03:07;9.43;;;6.13;;
9712;SDS011;4895;50.926;6.870;2023-06-26T05:05:33;11.10;;;5.13;;
9712;SDS011;4895;50.926;6.870;2023-06-26T05:07:58;8.40;;;5.93;;
9712;SDS011;4895;50.926;6.870;2023-06-26T05:10:38;8.63;;;5.00;;
9712;SDS011;4895;50.926;6.870;2023-06-26T05:13:03;15.80;;;6.40;;
9712;SDS011;4895;50.926;6.870;2023-06-26T05:15:28;10.77;;;5.30;;
9712;SDS011;4895;50.926;6.870;2023-06-26T05:17:54;18.90;;;6.40;;
9712;SDS011;4895;50.926;6.870;2023-06-26T05:20:19;9.80;;;5.10;;
9712;SDS011;4895;50.926;6.870;2023-06-26T05:22:44;11.90;;;5.50;;
9712;SDS011;4895;50.926;6.870;2023-06-26T05:25:10;10.33;;;5.30;;
9712;SDS011;4895;50.926;6.870;2023-06-26T05:27:36;9.00;;;5.33;;
9712;SDS011;4895;50.926;6.870;2023-06-26T05:30:02;8.53;;;5.33;;
9712;SDS011;4895;50.926;6.870;2023-06-26T05:32:28;10.27;;;5.70;;
9712;SDS011;4895;50.926;6.870;2023-06-26T05:34:53;8.90;;;5.83;;
9712;SDS011;4895;50.926;6.870;2023-06-26T05:37:22;11.53;;;6.07;;
9712;SDS011;4895;50.926;6.870;2023-06-26T05:39:48;14.00;;;5.57;;
9712;SDS011;4895;50.926;6.870;2023-06-26T05:42:13;7.93;;;5.43;;
9712;SDS011;4895;50.926;6.870;2023-06-26T05:44:39;9.20;;;6.27;;
9712;SDS011;4895;50.926;6.870;2023-06-26T05:47:04;12.53;;;5.20;;
9712;SDS011;4895;50.926;6.870;2023-06-26T05:49:30;12.10;;;5.80;;
9712;SDS011;4895;50.926;6.870;2023-06-26T05:51:55;9.40;;;5.27;;
9712;SDS011;4895;50.926;6.870;2023-06-26T05:54:21;13.03;;;5.30;;
9712;SDS011;4895;50.926;6.870;2023-06-26T05:56:47;11.73;;;5.50;;
9712;SDS011;4895;50.926;6.870;2023-06-26T05:59:13;9.10;;;5.47;;
9712;SDS011;4895;50.926;6.870;2023-06-26T06:01:39;19.30;;;5.60;;
9712;SDS011;4895;50.926;6.870;2023-06-26T06:04:05;6.73;;;4.30;;
9712;SDS011;4895;50.926;6.870;2023-06-26T06:06:30;10.37;;;4.97;;
9712;SDS011;4895;50.926;6.870;2023-06-26T06:08:55;8.03;;;4.50;;
9712;SDS011;4895;50.926;6.870;2023-06-26T06:11:21;10.83;;;5.10;;
9712;SDS011;4895;50.926;6.870;2023-06-26T06:13:47;10.50;;;5.20;;
9712;SDS011;4895;50.926;6.870;2023-06-26T06:16:13;9.20;;;5.53;;
9712;SDS011;4895;50.926;6.870;2023-06-26T06:18:38;9.90;;;4.97;;
9712;SDS011;4895;50.926;6.870;2023-06-26T06:21:03;10.83;;;5.80;;
9712;SDS011;4895;50.926;6.870;2023-06-26T06:23:29;7.40;;;4.50;;
9712;SDS011;4895;50.926;6.870;2023-06-26T06:25:54;10.83;;;5.23;;
9712;SDS011;4895;50.926;6.870;2023-06-26T06:28:19;10.80;;;4.80;;
9712;SDS011;4895;50.926;6.870;2023-06-26T06:30:44;10.57;;;5.53;;
9712;SDS011;4895;50.926;6.870;2023-06-26T06:33:12;11.47;;;5.20;;
9712;SDS011;4895;50.926;6.870;2023-06-26T06:35:38;10.43;;;5.07;;
9712;SDS011;4895;50.926;6.870;2023-06-26T06:38:03;13.03;;;5.10;;
9712;SDS011;4895;50.926;6.870;2023-06-26T06:40:28;11.03;;;5.50;;
9712;SDS011;4895;50.926;6.870;2023-06-26T06:42:53;14.47;;;5.27;;
9712;SDS011;4895;50.926;6.870;2023-06-26T06:45:19;8.80;;;5.40;;
9712;SDS011;4895;50.926;6.870;2023-06-26T06:47:44;14.80;;;4.87;;
9712;SDS011;4895;50.926;6.870;2023-06-26T06:50:09;13.20;;;4.93;;
9712;SDS011;4895;50.926;6.870;2023-06-26T06:52:38;11.40;;;5.30;;
9712;SDS011;4895;50.926;6.870;2023-06-26T06:55:05;11.00;;;5.30;;
9712;SDS011;4895;50.926;6.870;2023-06-26T06:57:33;19.17;;;5.50;;
9712;SDS011;4895;50.926;6.870;2023-06-26T07:00:05;12.37;;;5.43;;
9712;SDS011;4895;50.926;6.870;2023-06-26T07:02:35;15.33;;;5.00;;
9712;SDS011;4895;50.926;6.870;2023-06-26T07:05:01;8.80;;;4.60;;
9712;SDS011;4895;50.926;6.870;2023-06-26T07:07:29;12.37;;;5.00;;
9712;SDS011;4895;50.926;6.870;2023-06-26T07:10:02;10.50;;;5.53;;
9712;SDS011;4895;50.926;6.870;2023-06-26T07:12:28;16.23;;;5.27;;
9712;SDS011;4895;50.926;6.870;2023-06-26T07:14:54;20.13;;;5.50;;
9712;SDS011;4895;50.926;6.870;2023-06-26T07:17:20;9.07;;;5.23;;
9712;SDS011;4895;50.926;6.870;2023-06-26T07:19:46;13.03;;;5.83;;
9712;SDS011;4895;50.926;6.870;2023-06-26T07:22:12;16.60;;;5.63;;
9712;SDS011;4895;50.926;6.870;2023-06-26T07:24:37;15.73;;;5.70;;
9712;SDS011;4895;50.926;6.870;2023-06-26T07:27:02;11.33;;;4.97;;
9712;SDS011;4895;50.926;6.870;2023-06-26T07:29:28;9.50;;;5.60;;
9712;SDS011;4895;50.926;6.870;2023-06-26T07:31:53;16.80;;;6.13;;
9712;SDS011;4895;50.926;6.870;2023-06-26T07:34:18;17.57;;;5.70;;
9712;SDS011;4895;50.926;6.870;2023-06-26T07:36:44;16.40;;;5.80;;
9712;SDS011;4895;50.926;6.870;2023-06-26T07:39:10;12.60;;;5.80;;
9712;SDS011;4895;50.926;6.870;2023-06-26T07:41:35;15.20;;;5.33;;
9712;SDS011;4895;50.926;6.870;2023-06-26T07:44:00;16.27;;;5.30;;
9712;SDS011;4895;50.926;6.870;2023-06-26T07:46:25;14.03;;;6.10;;
9712;SDS011;4895;50.926;6.870;2023-06-26T07:48:51;16.13;;;6.03;;
9712;SDS011;4895;50.926;6.870;2023-06-26T07:51:16;21.17;;;6.30;;
9712;SDS011;4895;50.926;6.870;2023-06-26T07:53:41;21.10;;;6.43;;
9712;SDS011;4895;50.926;6.870;2023-06-26T07:56:07;26.57;;;6.10;;
9712;SDS011;4895;50.926;6.870;2023-06-26T07:58:32;13.50;;;5.97;;
9712;SDS011;4895;50.926;6.870;2023-06-26T08:00:57;15.13;;;6.00;;
9712;SDS011;4895;50.926;6.870;2023-06-26T08:03:23;12.40;;;5.70;;
9712;SDS011;4895;50.926;6.870;2023-06-26T08:05:48;13.10;;;5.23;;
9712;SDS011;4895;50.926;6.870;2023-06-26T08:08:14;13.20;;;5.13;;
9712;SDS011;4895;50.926;6.870;2023-06-26T08:10:39;23.80;;;6.03;;
9712;SDS011;4895;50.926;6.870;2023-06-26T08:13:05;12.23;;;4.93;;
9712;SDS011;4895;50.926;6.870;2023-06-26T08:15:30;16.80;;;5.53;;
9712;SDS011;4895;50.926;6.870;2023-06-26T08:17:55;10.63;;;5.80;;
9712;SDS011;4895;50.926;6.870;2023-06-26T08:20:21;14.57;;;4.60;;
9712;SDS011;4895;50.926;6.870;2023-06-26T08:22:47;13.93;;;5.53;;
9712;SDS011;4895;50.926;6.870;2023-06-26T08:25:14;9.20;;;5.00;;
9712;SDS011;4895;50.926;6.870;2023-06-26T08:27:39;14.63;;;5.20;;
9712;SDS011;4895;50.926;6.870;2023-06-26T08:30:05;12.87;;;5.07;;
9712;SDS011;4895;50.926;6.870;2023-06-26T08:32:30;8.73;;;4.83;;
9712;SDS011;4895;50.926;6.870;2023-06-26T08:34:56;10.90;;;4.90;;
9712;SDS011;4895;50.926;6.870;2023-06-26T08:37:21;12.60;;;4.67;;
9712;SDS011;4895;50.926;6.870;2023-06-26T08:39:47;24.77;;;5.20;;
9712;SDS011;4895;50.926;6.870;2023-06-26T08:42:12;10.13;;;4.90;;
9712;SDS011;4895;50.926;6.870;2023-06-26T08:44:38;13.07;;;5.23;;
9712;SDS011;4895;50.926;6.870;2023-06-26T08:47:03;13.10;;;5.23;;
9712;SDS011;4895;50.926;6.870;2023-06-26T08:49:46;9.73;;;5.20;;
9712;SDS011;4895;50.926;6.870;2023-06-26T08:52:24;20.30;;;5.43;;
9712;SDS011;4895;50.926;6.870;2023-06-26T08:54:59;10.47;;;4.70;;
9712;SDS011;4895;50.926;6.870;2023-06-26T08:57:27;9.90;;;4.70;;
9712;SDS011;4895;50.926;6.870;2023-06-26T08:59:53;11.47;;;4.93;;
9712;SDS011;4895;50.926;6.870;2023-06-26T09:02:18;15.97;;;4.70;;
9712;SDS011;4895;50.926;6.870;2023-06-26T09:04:46;15.60;;;5.27;;
9712;SDS011;4895;50.926;6.870;2023-06-26T09:07:12;9.03;;;4.90;;
9712;SDS011;4895;50.926;6.870;2023-06-26T09:09:38;14.30;;;4.43;;
9712;SDS011;4895;50.926;6.870;2023-06-26T09:12:03;12.63;;;5.03;;
9712;SDS011;4895;50.926;6.870;2023-06-26T09:14:29;10.13;;;4.30;;
9712;SDS011;4895;50.926;6.870;2023-06-26T09:16:54;10.70;;;4.80;;
9712;SDS011;4895;50.926;6.870;2023-06-26T09:19:20;15.10;;;4.53;;
9712;SDS011;4895;50.926;6.870;2023-06-26T09:21:45;19.70;;;5.07;;
9712;SDS011;4895;50.926;6.870;2023-06-26T09:24:14;9.67;;;4.73;;
9712;SDS011;4895;50.926;6.870;2023-06-26T09:26:40;15.43;;;5.03;;
9712;SDS011;4895;50.926;6.870;2023-06-26T09:29:05;9.73;;;4.07;;
9712;SDS011;4895;50.926;6.870;2023-06-26T09:31:32;11.53;;;4.80;;
9712;SDS011;4895;50.926;6.870;2023-06-26T09:33:58;12.73;;;4.40;;
9712;SDS011;4895;50.926;6.870;2023-06-26T09:36:26;10.60;;;5.03;;
9712;SDS011;4895;50.926;6.870;2023-06-26T09:38:53;10.50;;;3.80;;
9712;SDS011;4895;50.926;6.870;2023-06-26T09:41:18;9.83;;;4.40;;
9712;SDS011;4895;50.926;6.870;2023-06-26T09:43:47;7.83;;;3.57;;
9712;SDS011;4895;50.926;6.870;2023-06-26T09:46:17;12.70;;;5.20;;
9712;SDS011;4895;50.926;6.870;2023-06-26T09:48:49;40.77;;;5.73;;
9712;SDS011;4895;50.926;6.870;2023-06-26T09:51:16;12.07;;;4.17;;
9712;SDS011;4895;50.926;6.870;2023-06-26T09:53:42;12.13;;;4.37;;
9712;SDS011;4895;50.926;6.870;2023-06-26T09:56:07;11.47;;;4.23;;
9712;SDS011;4895;50.926;6.870;2023-06-26T09:58:41;11.40;;;3.90;;
9712;SDS011;4895;50.926;6.870;2023-06-26T10:01:07;9.13;;;4.47;;
9712;SDS011;4895;50.926;6.870;2023-06-26T10:03:34;10.50;;;3.27;;
9712;SDS011;4895;50.926;6.870;2023-06-26T10:06:00;10.87;;;3.70;;
9712;SDS011;4895;50.926;6.870;2023-06-26T10:08:26;10.83;;;4.20;;
9712;SDS011;4895;50.926;6.870;2023-06-26T10:10:51;13.93;;;4.03;;
9712;SDS011;4895;50.926;6.870;2023-06-26T10:13:19;11.90;;;4.10;;
9712;SDS011;4895;50.926;6.870;2023-06-26T10:15:47;9.50;;;3.70;;
9712;SDS011;4895;50.926;6.870;2023-06-26T10:18:13;13.50;;;4.20;;
9712;SDS011;4895;50.926;6.870;2023-06-26T10:20:40;15.13;;;4.80;;
9712;SDS011;4895;50.926;6.870;2023-06-26T10:23:06;5.53;;;3.33;;
9712;SDS011;4895;50.926;6.870;2023-06-26T10:25:32;13.33;;;4.40;;
9712;SDS011;4895;50.926;6.870;2023-06-26T10:28:00;10.10;;;2.83;;
9712;SDS011;4895;50.926;6.870;2023-06-26T10:30:28;9.33;;;3.10;;
9712;SDS011;4895;50.926;6.870;2023-06-26T10:32:56;8.33;;;3.40;;
9712;SDS011;4895;50.926;6.870;2023-06-26T10:35:22;10.53;;;3.60;;
9712;SDS011;4895;50.926;6.870;2023-06-26T10:37:49;7.57;;;3.27;;
9712;SDS011;4895;50.926;6.870;2023-06-26T10:40:24;12.07;;;3.20;;
9712;SDS011;4895;50.926;6.870;2023-06-26T10:42:50;9.33;;;3.73;;
9712;SDS011;4895;50.926;6.870;2023-06-26T10:47:45;12.60;;;3.13;;
9712;SDS011;4895;50.926;6.870;2023-06-26T10:52:52;14.87;;;3.53;;
9712;SDS011;4895;50.926;6.870;2023-06-26T10:55:51;8.93;;;3.43;;
9712;SDS011;4895;50.926;6.870;2023-06-26T11:03:38;7.50;;;3.30;;
9712;SDS011;4895;50.926;6.870;2023-06-26T11:06:13;6.07;;;2.77;;
9712;SDS011;4895;50.926;6.870;2023-06-26T11:08:46;6.20;;;2.80;;
9712;SDS011;4895;50.926;6.870;2023-06-26T11:11:15;5.77;;;3.00;;
9712;SDS011;4895;50.926;6.870;2023-06-26T11:13:41;9.87;;;2.90;;
9712;SDS011;4895;50.926;6.870;2023-06-26T11:16:06;11.77;;;3.40;;
9712;SDS011;4895;50.926;6.870;2023-06-26T11:18:32;10.37;;;3.13;;
9712;SDS011;4895;50.926;6.870;2023-06-26T11:21:04;7.27;;;2.73;;
9712;SDS011;4895;50.926;6.870;2023-06-26T11:23:31;7.17;;;3.20;;
9712;SDS011;4895;50.926;6.870;2023-06-26T11:25:58;11.50;;;2.90;;
9712;SDS011;4895;50.926;6.870;2023-06-26T11:28:38;13.53;;;2.87;;
9712;SDS011;4895;50.926;6.870;2023-06-26T11:31:03;12.70;;;2.83;;
9712;SDS011;4895;50.926;6.870;2023-06-26T11:33:28;7.53;;;2.97;;
9712;SDS011;4895;50.926;6.870;2023-06-26T11:35:54;8.27;;;3.27;;
9712;SDS011;4895;50.926;6.870;2023-06-26T11:38:19;11.73;;;3.07;;
9712;SDS011;4895;50.926;6.870;2023-06-26T11:40:44;8.13;;;3.03;;
9712;SDS011;4895;50.926;6.870;2023-06-26T11:43:10;6.43;;;2.40;;
9712;SDS011;4895;50.926;6.870;2023-06-26T11:45:35;8.47;;;2.97;;
9712;SDS011;4895;50.926;6.870;2023-06-26T11:48:01;6.93;;;2.93;;
9712;SDS011;4895;50.926;6.870;2023-06-26T11:50:27;7.33;;;2.67;;
9712;SDS011;4895;50.926;6.870;2023-06-26T11:52:55;12.13;;;3.50;;
9712;SDS011;4895;50.926;6.870;2023-06-26T11:55:22;9.57;;;2.90;;
9712;SDS011;4895;50.926;6.870;2023-06-26T11:57:48;10.00;;;2.70;;
9712;SDS011;4895;50.926;6.870;2023-06-26T12:00:20;11.60;;;3.87;;
9712;SDS011;4895;50.926;6.870;2023-06-26T12:02:46;5.80;;;2.20;;
9712;SDS011;4895;50.926;6.870;2023-06-26T12:05:15;5.93;;;2.70;;
9712;SDS011;4895;50.926;6.870;2023-06-26T12:07:42;10.37;;;2.73;;
9712;SDS011;4895;50.926;6.870;2023-06-26T12:10:08;10.33;;;2.67;;
9712;SDS011;4895;50.926;6.870;2023-06-26T12:12:35;10.13;;;3.00;;
9712;SDS011;4895;50.926;6.870;2023-06-26T12:15:00;13.63;;;3.10;;
9712;SDS011;4895;50.926;6.870;2023-06-26T12:17:26;5.07;;;2.20;;
9712;SDS011;4895;50.926;6.870;2023-06-26T12:19:51;9.20;;;2.37;;
9712;SDS011;4895;50.926;6.870;2023-06-26T12:22:17;7.33;;;2.40;;
9712;SDS011;4895;50.926;6.870;2023-06-26T12:24:43;4.73;;;2.20;;
9712;SDS011;4895;50.926;6.870;2023-06-26T12:27:10;8.87;;;2.50;;
9712;SDS011;4895;50.926;6.870;2023-06-26T12:29:37;11.57;;;2.23;;
9712;SDS011;4895;50.926;6.870;2023-06-26T12:32:03;5.33;;;2.33;;
9712;SDS011;4895;50.926;6.870;2023-06-26T12:34:32;6.07;;;2.70;;
9712;SDS011;4895;50.926;6.870;2023-06-26T12:39:52;11.70;;;2.40;;
9712;SDS011;4895;50.926;6.870;2023-06-26T12:42:21;5.67;;;2.23;;
9712;SDS011;4895;50.926;6.870;2023-06-26T12:44:47;6.43;;;2.40;;
9712;SDS011;4895;50.926;6.870;2023-06-26T12:47:13;6.10;;;1.97;;
9712;SDS011;4895;50.926;6.870;2023-06-26T12:49:40;5.27;;;2.33;;
9712;SDS011;4895;50.926;6.870;2023-06-26T12:52:13;5.13;;;2.10;;
9712;SDS011;4895;50.926;6.870;2023-06-26T12:54:41;7.17;;;2.50;;
9712;SDS011;4895;50.926;6.870;2023-06-26T12:57:08;5.53;;;2.10;;
9712;SDS011;4895;50.926;6.870;2023-06-26T12:59:35;9.30;;;1.83;;
9712;SDS011;4895;50.926;6.870;2023-06-26T13:02:01;7.60;;;1.80;;
9712;SDS011;4895;50.926;6.870;2023-06-26T13:04:27;5.90;;;1.80;;
9712;SDS011;4895;50.926;6.870;2023-06-26T13:06:53;8.73;;;2.30;;
9712;SDS011;4895;50.926;6.870;2023-06-26T13:09:20;8.27;;;1.90;;
9712;SDS011;4895;50.926;6.870;2023-06-26T13:11:49;8.30;;;1.90;;
9712;SDS011;4895;50.926;6.870;2023-06-26T13:14:15;5.27;;;2.27;;
9712;SDS011;4895;50.926;6.870;2023-06-26T13:16:41;4.33;;;1.80;;
9712;SDS011;4895;50.926;6.870;2023-06-26T13:19:06;7.00;;;2.00;;
9712;SDS011;4895;50.926;6.870;2023-06-26T13:21:33;8.33;;;2.20;;
9712;SDS011;4895;50.926;6.870;2023-06-26T13:23:59;6.57;;;1.63;;
9712;SDS011;4895;50.926;6.870;2023-06-26T13:26:24;14.50;;;2.03;;
9712;SDS011;4895;50.926;6.870;2023-06-26T13:28:51;13.77;;;1.83;;
9712;SDS011;4895;50.926;6.870;2023-06-26T13:31:17;10.03;;;2.30;;
9712;SDS011;4895;50.926;6.870;2023-06-26T13:33:42;7.63;;;2.00;;
9712;SDS011;4895;50.926;6.870;2023-06-26T13:36:09;17.60;;;2.10;;
9712;SDS011;4895;50.926;6.870;2023-06-26T13:38:35;13.40;;;2.47;;
9712;SDS011;4895;50.926;6.870;2023-06-26T13:41:00;5.70;;;1.93;;
9712;SDS011;4895;50.926;6.870;2023-06-26T13:43:26;5.67;;;1.70;;
9712;SDS011;4895;50.926;6.870;2023-06-26T13:45:52;7.50;;;1.80;;
9712;SDS011;4895;50.926;6.870;2023-06-26T13:48:17;6.50;;;1.80;;
9712;SDS011;4895;50.926;6.870;2023-06-26T13:50:43;6.90;;;1.70;;
9712;SDS011;4895;50.926;6.870;2023-06-26T13:53:08;7.10;;;1.30;;
9712;SDS011;4895;50.926;6.870;2023-06-26T13:55:34;15.30;;;2.20;;
9712;SDS011;4895;50.926;6.870;2023-06-26T13:58:00;4.80;;;1.70;;
9712;SDS011;4895;50.926;6.870;2023-06-26T14:00:30;7.40;;;1.63;;
9712;SDS011;4895;50.926;6.870;2023-06-26T14:02:56;7.77;;;1.90;;
9712;SDS011;4895;50.926;6.870;2023-06-26T14:05:22;5.00;;;1.77;;
9712;SDS011;4895;50.926;6.870;2023-06-26T14:07:47;7.23;;;2.13;;
9712;SDS011;4895;50.926;6.870;2023-06-26T14:10:13;7.97;;;1.80;;
9712;SDS011;4895;50.926;6.870;2023-06-26T14:12:40;12.77;;;1.80;;
9712;SDS011;4895;50.926;6.870;2023-06-26T14:15:05;3.97;;;1.80;;
9712;SDS011;4895;50.926;6.870;2023-06-26T14:17:31;2.70;;;1.30;;
9712;SDS011;4895;50.926;6.870;2023-06-26T14:19:56;5.50;;;1.67;;
9712;SDS011;4895;50.926;6.870;2023-06-26T14:22:22;5.80;;;1.90;;
9712;SDS011;4895;50.926;6.870;2023-06-26T14:24:48;4.97;;;1.80;;
9712;SDS011;4895;50.926;6.870;2023-06-26T14:27:14;5.37;;;1.50;;
9712;SDS011;4895;50.926;6.870;2023-06-26T14:29:39;15.33;;;1.90;;
9712;SDS011;4895;50.926;6.870;2023-06-26T14:32:05;5.13;;;1.87;;
9712;SDS011;4895;50.926;6.870;2023-06-26T14:34:31;4.63;;;2.17;;
9712;SDS011;4895;50.926;6.870;2023-06-26T14:36:56;7.03;;;1.97;;
9712;SDS011;4895;50.926;6.870;2023-06-26T14:39:22;5.37;;;1.93;;
9712;SDS011;4895;50.926;6.870;2023-06-26T14:41:47;5.20;;;2.33;;
9712;SDS011;4895;50.926;6.870;2023-06-26T14:44:13;11.93;;;2.53;;
9712;SDS011;4895;50.926;6.870;2023-06-26T14:46:39;6.13;;;2.03;;
9712;SDS011;4895;50.926;6.870;2023-06-26T14:49:04;6.10;;;2.00;;
9712;SDS011;4895;50.926;6.870;2023-06-26T14:51:29;10.13;;;2.20;;
9712;SDS011;4895;50.926;6.870;2023-06-26T14:53:55;6.40;;;2.17;;
9712;SDS011;4895;50.926;6.870;2023-06-26T14:56:20;8.60;;;2.03;;
9712;SDS011;4895;50.926;6.870;2023-06-26T14:58:45;6.80;;;3.00;;
9712;SDS011;4895;50.926;6.870;2023-06-26T15:01:14;7.13;;;1.90;;
9712;SDS011;4895;50.926;6.870;2023-06-26T15:03:40;6.30;;;2.30;;
9712;SDS011;4895;50.926;6.870;2023-06-26T15:06:06;8.60;;;2.20;;
9712;SDS011;4895;50.926;6.870;2023-06-26T15:08:31;8.90;;;2.30;;
9712;SDS011;4895;50.926;6.870;2023-06-26T15:10:56;3.77;;;1.53;;
9712;SDS011;4895;50.926;6.870;2023-06-26T15:13:21;4.70;;;1.87;;
9712;SDS011;4895;50.926;6.870;2023-06-26T15:15:47;6.70;;;2.10;;
9712;SDS011;4895;50.926;6.870;2023-06-26T15:18:12;6.87;;;2.07;;